This is the latest recevied weather packets stored in our database for station/object DC4THF-13. If no packets are shown the sender has not sent any weather packets the latest 10 day(s).
| Time | Temp. | Humidity | Pressure | Rain* | Wind** | Luminosity | Snow |
|---|---|---|---|---|---|---|---|
| 1787578952 | 23.89° C | 41% | 1015.8 hPa | 0 mm | - | - | - |
| 1787578349 | 22.78° C | 45% | 1015.8 hPa | 0 mm | - | - | - |
| 1787577746 | 22.78° C | 45% | 1015.9 hPa | 0 mm | - | - | - |
| 1787577142 | 23.89° C | 43% | 1016 hPa | 0 mm | - | - | - |
| 1787576538 | 23.89° C | 44% | 1016.1 hPa | 0 mm | - | - | - |
| 1787575935 | 22.78° C | 46% | 1016.2 hPa | 0 mm | - | - | - |
| 1787575332 | 22.22° C | 48% | 1016.4 hPa | 0 mm | - | - | - |
| 1787574790 | 22.78° C | 48% | 1016.4 hPa | 0 mm | - | - | - |
| 1787574187 | 22.78° C | 48% | 1016.6 hPa | 0 mm | - | - | - |
| 1787573584 | 21.67° C | 52% | 1017 hPa | 0 mm | - | - | - |
| 1787572981 | 21.11° C | 57% | 1017 hPa | 0 mm | - | - | - |
| 1787572378 | 20° C | 60% | 1017.2 hPa | 0 mm | - | - | - |
| 1787571775 | 19.44° C | 60% | 1017.2 hPa | 0 mm | - | - | - |
| 1787571171 | 18.89° C | 61% | 1017.2 hPa | 0 mm | - | - | - |
| 1787570568 | 18.89° C | 60% | 1017.2 hPa | 0 mm | - | - | - |
| 1787569966 | 18.89° C | 60% | 1017.3 hPa | 0 mm | - | - | - |
| 1787569363 | 18.89° C | 61% | 1017.2 hPa | 0 mm | - | - | - |
| 1787568760 | 18.33° C | 60% | 1017.1 hPa | 0 mm | - | - | - |
| 1787568157 | 19.44° C | 60% | 1017.1 hPa | 0 mm | - | - | - |
| 1787567553 | 19.44° C | 61% | 1017.2 hPa | 0 mm | - | - | - |
| 1787566951 | 18.33° C | 62% | 1017.2 hPa | 0 mm | - | - | - |
| 1787566348 | 18.89° C | 62% | 1017.2 hPa | 0 mm | - | - | - |
| 1787565744 | 18.89° C | 61% | 1017.2 hPa | 0 mm | - | - | - |
| 1787565142 | 18.33° C | 62% | 1017.3 hPa | 0 mm | - | - | - |
| 1787564546 | 18.89° C | 60% | 1017.2 hPa | 0 mm | - | - | - |
* Rain latest hour (hover to see other rain measurements)
** Current wind speed in m/s (hover to see current wind gust speed)